sensor_id;sensor_type;location;lat;lon;timestamp;temperature;humidity
19037;DHT22;9651;49.138;8.900;2023-07-29T00:02:33;17.60;99.90
19037;DHT22;9651;49.138;8.900;2023-07-29T00:06:34;17.60;99.90
19037;DHT22;9651;49.138;8.900;2023-07-29T00:10:38;17.60;99.90
19037;DHT22;9651;49.138;8.900;2023-07-29T00:14:40;17.70;99.90
19037;DHT22;9651;49.138;8.900;2023-07-29T00:18:42;17.70;99.90
19037;DHT22;9651;49.138;8.900;2023-07-29T00:22:43;17.70;99.90
19037;DHT22;9651;49.138;8.900;2023-07-29T00:26:47;17.70;99.90
19037;DHT22;9651;49.138;8.900;2023-07-29T00:30:48;17.70;99.90
19037;DHT22;9651;49.138;8.900;2023-07-29T00:34:50;17.80;99.90
19037;DHT22;9651;49.138;8.900;2023-07-29T00:38:52;17.80;99.90
19037;DHT22;9651;49.138;8.900;2023-07-29T00:42:58;17.80;99.90
19037;DHT22;9651;49.138;8.900;2023-07-29T00:47:02;17.80;99.90
19037;DHT22;9651;49.138;8.900;2023-07-29T00:51:04;17.80;99.90
19037;DHT22;9651;49.138;8.900;2023-07-29T00:55:07;17.90;99.90
19037;DHT22;9651;49.138;8.900;2023-07-29T00:59:11;17.90;99.90
19037;DHT22;9651;49.138;8.900;2023-07-29T01:03:13;17.90;99.90
19037;DHT22;9651;49.138;8.900;2023-07-29T01:07:21;17.90;99.90
19037;DHT22;9651;49.138;8.900;2023-07-29T01:11:33;17.80;99.90
19037;DHT22;9651;49.138;8.900;2023-07-29T01:15:44;17.90;99.90
19037;DHT22;9651;49.138;8.900;2023-07-29T01:19:59;17.90;99.90
19037;DHT22;9651;49.138;8.900;2023-07-29T01:24:03;17.80;99.90
19037;DHT22;9651;49.138;8.900;2023-07-29T01:28:05;17.80;99.90
19037;DHT22;9651;49.138;8.900;2023-07-29T01:32:10;17.90;99.90
19037;DHT22;9651;49.138;8.900;2023-07-29T01:36:18;17.90;99.90
19037;DHT22;9651;49.138;8.900;2023-07-29T01:40:26;17.90;99.90
19037;DHT22;9651;49.138;8.900;2023-07-29T01:44:29;17.90;99.90
19037;DHT22;9651;49.138;8.900;2023-07-29T01:48:30;17.90;99.90
19037;DHT22;9651;49.138;8.900;2023-07-29T01:52:32;18.00;99.90
19037;DHT22;9651;49.138;8.900;2023-07-29T01:56:37;17.90;99.90
19037;DHT22;9651;49.138;8.900;2023-07-29T02:00:39;17.90;99.90
19037;DHT22;9651;49.138;8.900;2023-07-29T02:04:40;17.90;99.90
19037;DHT22;9651;49.138;8.900;2023-07-29T02:08:42;17.90;99.90
19037;DHT22;9651;49.138;8.900;2023-07-29T02:12:46;17.80;99.90
19037;DHT22;9651;49.138;8.900;2023-07-29T02:16:48;17.80;99.90
19037;DHT22;9651;49.138;8.900;2023-07-29T02:20:50;17.70;99.90
19037;DHT22;9651;49.138;8.900;2023-07-29T02:24:52;17.60;99.90
19037;DHT22;9651;49.138;8.900;2023-07-29T02:28:55;17.60;99.90
19037;DHT22;9651;49.138;8.900;2023-07-29T02:32:57;17.50;99.90
19037;DHT22;9651;49.138;8.900;2023-07-29T02:37:00;17.50;99.90
19037;DHT22;9651;49.138;8.900;2023-07-29T02:41:02;17.50;99.90
19037;DHT22;9651;49.138;8.900;2023-07-29T02:45:06;17.50;99.90
19037;DHT22;9651;49.138;8.900;2023-07-29T02:49:10;17.50;99.90
19037;DHT22;9651;49.138;8.900;2023-07-29T02:53:12;17.60;99.90
19037;DHT22;9651;49.138;8.900;2023-07-29T02:57:14;17.60;99.90
19037;DHT22;9651;49.138;8.900;2023-07-29T03:01:17;17.60;99.90
19037;DHT22;9651;49.138;8.900;2023-07-29T03:05:19;17.60;99.90
19037;DHT22;9651;49.138;8.900;2023-07-29T03:09:21;17.70;99.90
19037;DHT22;9651;49.138;8.900;2023-07-29T03:13:23;17.70;99.90
19037;DHT22;9651;49.138;8.900;2023-07-29T03:17:27;17.70;99.90
19037;DHT22;9651;49.138;8.900;2023-07-29T03:21:29;17.80;99.90
19037;DHT22;9651;49.138;8.900;2023-07-29T03:25:31;17.80;99.90
19037;DHT22;9651;49.138;8.900;2023-07-29T03:29:32;17.80;99.90
19037;DHT22;9651;49.138;8.900;2023-07-29T03:33:36;17.80;99.90
19037;DHT22;9651;49.138;8.900;2023-07-29T03:37:38;17.80;99.90
19037;DHT22;9651;49.138;8.900;2023-07-29T03:41:40;17.90;99.90
19037;DHT22;9651;49.138;8.900;2023-07-29T03:45:42;17.90;99.90
19037;DHT22;9651;49.138;8.900;2023-07-29T03:49:45;17.90;99.90
19037;DHT22;9651;49.138;8.900;2023-07-29T03:53:48;17.90;99.90
19037;DHT22;9651;49.138;8.900;2023-07-29T03:57:50;17.80;99.90
19037;DHT22;9651;49.138;8.900;2023-07-29T04:01:51;17.80;99.90
19037;DHT22;9651;49.138;8.900;2023-07-29T04:05:55;17.80;99.90
19037;DHT22;9651;49.138;8.900;2023-07-29T04:09:57;17.80;99.90
19037;DHT22;9651;49.138;8.900;2023-07-29T04:13:59;17.80;99.90
19037;DHT22;9651;49.138;8.900;2023-07-29T04:18:01;17.80;99.90
19037;DHT22;9651;49.138;8.900;2023-07-29T04:22:05;17.80;99.90
19037;DHT22;9651;49.138;8.900;2023-07-29T04:26:07;17.80;99.90
19037;DHT22;9651;49.138;8.900;2023-07-29T04:30:09;17.90;99.90
19037;DHT22;9651;49.138;8.900;2023-07-29T04:34:11;17.90;99.90
19037;DHT22;9651;49.138;8.900;2023-07-29T04:38:15;17.90;99.90
19037;DHT22;9651;49.138;8.900;2023-07-29T04:42:16;17.90;99.90
19037;DHT22;9651;49.138;8.900;2023-07-29T04:46:18;18.00;99.90
19037;DHT22;9651;49.138;8.900;2023-07-29T04:50:20;18.00;99.90
19037;DHT22;9651;49.138;8.900;2023-07-29T04:54:23;18.00;99.90
19037;DHT22;9651;49.138;8.900;2023-07-29T04:58:25;18.00;99.90
19037;DHT22;9651;49.138;8.900;2023-07-29T05:02:29;18.00;99.90
19037;DHT22;9651;49.138;8.900;2023-07-29T05:06:31;18.00;99.90
19037;DHT22;9651;49.138;8.900;2023-07-29T05:10:36;18.10;99.90
19037;DHT22;9651;49.138;8.900;2023-07-29T05:14:37;18.20;99.90
19037;DHT22;9651;49.138;8.900;2023-07-29T05:18:39;18.30;99.90
19037;DHT22;9651;49.138;8.900;2023-07-29T05:22:41;18.40;99.90
19037;DHT22;9651;49.138;8.900;2023-07-29T05:26:44;18.50;99.90
19037;DHT22;9651;49.138;8.900;2023-07-29T05:30:46;18.60;99.90
19037;DHT22;9651;49.138;8.900;2023-07-29T05:34:48;18.70;99.90
19037;DHT22;9651;49.138;8.900;2023-07-29T05:38:51;18.80;99.90
19037;DHT22;9651;49.138;8.900;2023-07-29T05:42:55;18.90;99.90
19037;DHT22;9651;49.138;8.900;2023-07-29T05:46:57;19.00;99.90
19037;DHT22;9651;49.138;8.900;2023-07-29T05:50:59;19.10;99.90
19037;DHT22;9651;49.138;8.900;2023-07-29T05:55:01;19.20;99.90
19037;DHT22;9651;49.138;8.900;2023-07-29T05:59:06;19.30;99.90
19037;DHT22;9651;49.138;8.900;2023-07-29T06:03:09;19.50;99.90
19037;DHT22;9651;49.138;8.900;2023-07-29T06:07:10;19.60;99.90
19037;DHT22;9651;49.138;8.900;2023-07-29T06:11:12;19.70;99.90
19037;DHT22;9651;49.138;8.900;2023-07-29T06:15:16;19.80;99.90
19037;DHT22;9651;49.138;8.900;2023-07-29T06:19:18;19.90;99.90
19037;DHT22;9651;49.138;8.900;2023-07-29T06:23:20;20.00;99.90
19037;DHT22;9651;49.138;8.900;2023-07-29T06:27:22;20.20;99.90
19037;DHT22;9651;49.138;8.900;2023-07-29T06:31:26;20.40;99.90
19037;DHT22;9651;49.138;8.900;2023-07-29T06:35:28;20.60;99.90
19037;DHT22;9651;49.138;8.900;2023-07-29T06:39:31;20.70;99.90
19037;DHT22;9651;49.138;8.900;2023-07-29T06:43:33;20.60;99.90
19037;DHT22;9651;49.138;8.900;2023-07-29T06:47:37;20.40;99.90
19037;DHT22;9651;49.138;8.900;2023-07-29T06:51:38;20.30;99.90
19037;DHT22;9651;49.138;8.900;2023-07-29T06:55:41;20.30;99.90
19037;DHT22;9651;49.138;8.900;2023-07-29T06:59:43;20.30;99.90
19037;DHT22;9651;49.138;8.900;2023-07-29T07:03:46;20.40;99.90
19037;DHT22;9651;49.138;8.900;2023-07-29T07:07:48;20.50;99.90
19037;DHT22;9651;49.138;8.900;2023-07-29T07:11:50;20.60;99.90
19037;DHT22;9651;49.138;8.900;2023-07-29T07:15:54;20.60;99.90
19037;DHT22;9651;49.138;8.900;2023-07-29T07:19:57;20.70;99.90
19037;DHT22;9651;49.138;8.900;2023-07-29T07:23:59;20.80;99.90
19037;DHT22;9651;49.138;8.900;2023-07-29T07:28:01;21.00;99.90
19037;DHT22;9651;49.138;8.900;2023-07-29T07:32:03;21.40;99.90
19037;DHT22;9651;49.138;8.900;2023-07-29T07:36:06;21.70;99.90
19037;DHT22;9651;49.138;8.900;2023-07-29T07:40:09;21.90;99.90
19037;DHT22;9651;49.138;8.900;2023-07-29T07:44:12;21.80;99.90
19037;DHT22;9651;49.138;8.900;2023-07-29T07:48:16;21.70;99.90
19037;DHT22;9651;49.138;8.900;2023-07-29T07:52:19;21.90;99.90
19037;DHT22;9651;49.138;8.900;2023-07-29T07:56:21;22.00;99.90
19037;DHT22;9651;49.138;8.900;2023-07-29T08:00:23;22.30;99.90
19037;DHT22;9651;49.138;8.900;2023-07-29T08:04:25;22.60;99.90
19037;DHT22;9651;49.138;8.900;2023-07-29T08:08:28;22.70;99.90
19037;DHT22;9651;49.138;8.900;2023-07-29T08:12:30;22.50;99.90
19037;DHT22;9651;49.138;8.900;2023-07-29T08:16:32;22.40;99.90
19037;DHT22;9651;49.138;8.900;2023-07-29T08:20:33;22.40;99.90
19037;DHT22;9651;49.138;8.900;2023-07-29T08:24:37;22.60;99.90
19037;DHT22;9651;49.138;8.900;2023-07-29T08:28:39;22.80;99.90
19037;DHT22;9651;49.138;8.900;2023-07-29T08:32:41;23.30;99.90
19037;DHT22;9651;49.138;8.900;2023-07-29T08:36:43;23.60;99.90
19037;DHT22;9651;49.138;8.900;2023-07-29T08:40:50;23.90;99.90
19037;DHT22;9651;49.138;8.900;2023-07-29T08:44:54;23.80;99.90
19037;DHT22;9651;49.138;8.900;2023-07-29T08:48:57;23.60;99.90
19037;DHT22;9651;49.138;8.900;2023-07-29T08:53:03;23.30;99.90
19037;DHT22;9651;49.138;8.900;2023-07-29T08:57:07;23.30;99.90
19037;DHT22;9651;49.138;8.900;2023-07-29T09:01:10;24.00;99.90
19037;DHT22;9651;49.138;8.900;2023-07-29T09:05:12;24.20;99.90
19037;DHT22;9651;49.138;8.900;2023-07-29T09:09:14;24.10;99.90
19037;DHT22;9651;49.138;8.900;2023-07-29T09:13:17;24.20;99.90
19037;DHT22;9651;49.138;8.900;2023-07-29T09:17:20;24.30;99.90
19037;DHT22;9651;49.138;8.900;2023-07-29T09:21:23;24.60;99.90
19037;DHT22;9651;49.138;8.900;2023-07-29T09:25:26;25.00;99.90
19037;DHT22;9651;49.138;8.900;2023-07-29T09:29:29;25.30;99.90
19037;DHT22;9651;49.138;8.900;2023-07-29T09:33:33;25.70;99.90
19037;DHT22;9651;49.138;8.900;2023-07-29T09:37:37;25.80;99.90
19037;DHT22;9651;49.138;8.900;2023-07-29T09:41:39;25.70;99.90
19037;DHT22;9651;49.138;8.900;2023-07-29T09:45:43;25.70;99.90
19037;DHT22;9651;49.138;8.900;2023-07-29T09:49:47;25.50;99.90
19037;DHT22;9651;49.138;8.900;2023-07-29T09:53:50;25.60;99.90
19037;DHT22;9651;49.138;8.900;2023-07-29T09:57:57;26.10;99.90
19037;DHT22;9651;49.138;8.900;2023-07-29T10:02:02;26.80;99.90
19037;DHT22;9651;49.138;8.900;2023-07-29T10:06:06;27.60;99.90
19037;DHT22;9651;49.138;8.900;2023-07-29T10:10:09;28.50;99.90
19037;DHT22;9651;49.138;8.900;2023-07-29T10:14:11;28.90;99.90
19037;DHT22;9651;49.138;8.900;2023-07-29T10:18:15;29.50;99.90
19037;DHT22;9651;49.138;8.900;2023-07-29T10:22:20;29.70;99.90
19037;DHT22;9651;49.138;8.900;2023-07-29T10:26:22;29.50;99.90
19037;DHT22;9651;49.138;8.900;2023-07-29T10:30:25;29.00;99.90
19037;DHT22;9651;49.138;8.900;2023-07-29T10:34:28;28.80;99.90
19037;DHT22;9651;49.138;8.900;2023-07-29T10:38:31;29.00;99.90
19037;DHT22;9651;49.138;8.900;2023-07-29T10:42:33;28.80;99.90
19037;DHT22;9651;49.138;8.900;2023-07-29T10:46:35;28.70;99.90
19037;DHT22;9651;49.138;8.900;2023-07-29T10:50:39;28.70;99.90
19037;DHT22;9651;49.138;8.900;2023-07-29T10:54:45;28.70;99.90
19037;DHT22;9651;49.138;8.900;2023-07-29T10:58:47;30.20;99.90
19037;DHT22;9651;49.138;8.900;2023-07-29T11:02:59;31.80;99.90
19037;DHT22;9651;49.138;8.900;2023-07-29T11:07:19;31.90;99.90
19037;DHT22;9651;49.138;8.900;2023-07-29T11:11:23;31.10;99.90
19037;DHT22;9651;49.138;8.900;2023-07-29T11:15:26;31.80;99.90
19037;DHT22;9651;49.138;8.900;2023-07-29T11:19:29;32.40;99.90
19037;DHT22;9651;49.138;8.900;2023-07-29T11:23:33;33.70;99.90
19037;DHT22;9651;49.138;8.900;2023-07-29T11:27:35;34.30;99.90
19037;DHT22;9651;49.138;8.900;2023-07-29T11:31:40;34.60;99.90
19037;DHT22;9651;49.138;8.900;2023-07-29T11:35:42;34.80;99.90
19037;DHT22;9651;49.138;8.900;2023-07-29T11:39:45;35.40;99.90
19037;DHT22;9651;49.138;8.900;2023-07-29T11:43:47;35.90;99.90
19037;DHT22;9651;49.138;8.900;2023-07-29T11:47:49;35.80;99.90
19037;DHT22;9651;49.138;8.900;2023-07-29T11:51:51;36.30;99.90
19037;DHT22;9651;49.138;8.900;2023-07-29T11:55:55;36.80;99.40
19037;DHT22;9651;49.138;8.900;2023-07-29T11:59:57;37.20;96.60
19037;DHT22;9651;49.138;8.900;2023-07-29T12:03:59;37.00;96.00
19037;DHT22;9651;49.138;8.900;2023-07-29T12:08:02;36.30;96.90
19037;DHT22;9651;49.138;8.900;2023-07-29T12:12:06;36.10;96.10
19037;DHT22;9651;49.138;8.900;2023-07-29T12:16:08;35.80;94.70
19037;DHT22;9651;49.138;8.900;2023-07-29T12:20:11;34.90;95.80
19037;DHT22;9651;49.138;8.900;2023-07-29T12:24:13;33.40;97.10
19037;DHT22;9651;49.138;8.900;2023-07-29T12:28:16;32.80;97.50
19037;DHT22;9651;49.138;8.900;2023-07-29T12:32:18;33.30;97.00
19037;DHT22;9651;49.138;8.900;2023-07-29T12:36:20;34.30;96.50
19037;DHT22;9651;49.138;8.900;2023-07-29T12:40:22;36.10;95.10
19037;DHT22;9651;49.138;8.900;2023-07-29T12:44:30;37.70;94.10
19037;DHT22;9651;49.138;8.900;2023-07-29T12:48:32;37.40;91.40
19037;DHT22;9651;49.138;8.900;2023-07-29T12:52:34;37.20;91.00
19037;DHT22;9651;49.138;8.900;2023-07-29T12:56:35;38.20;90.30
19037;DHT22;9651;49.138;8.900;2023-07-29T13:00:39;38.50;90.30
19037;DHT22;9651;49.138;8.900;2023-07-29T13:04:40;39.10;88.20
19037;DHT22;9651;49.138;8.900;2023-07-29T13:08:43;39.70;85.30
19037;DHT22;9651;49.138;8.900;2023-07-29T13:12:44;39.30;84.60
19037;DHT22;9651;49.138;8.900;2023-07-29T13:16:48;39.20;83.90
19037;DHT22;9651;49.138;8.900;2023-07-29T13:20:49;36.50;85.00
19037;DHT22;9651;49.138;8.900;2023-07-29T13:24:51;34.60;89.90
19037;DHT22;9651;49.138;8.900;2023-07-29T13:28:53;33.00;91.20
19037;DHT22;9651;49.138;8.900;2023-07-29T13:32:57;31.90;92.00
19037;DHT22;9651;49.138;8.900;2023-07-29T13:36:59;31.40;92.00
19037;DHT22;9651;49.138;8.900;2023-07-29T13:41:01;31.60;93.20
19037;DHT22;9651;49.138;8.900;2023-07-29T13:45:04;33.90;92.30
19037;DHT22;9651;49.138;8.900;2023-07-29T13:49:07;35.80;90.50
19037;DHT22;9651;49.138;8.900;2023-07-29T13:53:09;36.70;88.50
19037;DHT22;9651;49.138;8.900;2023-07-29T13:57:14;37.20;84.60
19037;DHT22;9651;49.138;8.900;2023-07-29T14:01:16;36.40;86.70
19037;DHT22;9651;49.138;8.900;2023-07-29T14:05:19;36.20;86.10
19037;DHT22;9651;49.138;8.900;2023-07-29T14:09:21;36.20;86.90
19037;DHT22;9651;49.138;8.900;2023-07-29T14:13:23;36.50;86.60
19037;DHT22;9651;49.138;8.900;2023-07-29T14:17:25;38.20;84.90
19037;DHT22;9651;49.138;8.900;2023-07-29T14:21:28;39.10;81.10
19037;DHT22;9651;49.138;8.900;2023-07-29T14:25:30;39.20;80.20
19037;DHT22;9651;49.138;8.900;2023-07-29T14:29:32;37.50;80.60
19037;DHT22;9651;49.138;8.900;2023-07-29T14:33:34;35.20;83.60
19037;DHT22;9651;49.138;8.900;2023-07-29T14:37:37;35.50;85.60
19037;DHT22;9651;49.138;8.900;2023-07-29T14:41:39;35.90;83.90
19037;DHT22;9651;49.138;8.900;2023-07-29T14:45:41;36.20;81.30
19037;DHT22;9651;49.138;8.900;2023-07-29T14:49:44;34.70;84.80
19037;DHT22;9651;49.138;8.900;2023-07-29T14:53:47;33.80;85.40
19037;DHT22;9651;49.138;8.900;2023-07-29T14:57:49;35.30;83.70
19037;DHT22;9651;49.138;8.900;2023-07-29T15:01:51;37.20;80.50
19037;DHT22;9651;49.138;8.900;2023-07-29T15:05:53;36.90;80.80
19037;DHT22;9651;49.138;8.900;2023-07-29T15:09:56;34.70;83.60
19037;DHT22;9651;49.138;8.900;2023-07-29T15:13:58;33.20;85.30
19037;DHT22;9651;49.138;8.900;2023-07-29T15:18:00;33.70;86.40
19037;DHT22;9651;49.138;8.900;2023-07-29T15:22:02;35.30;83.90
19037;DHT22;9651;49.138;8.900;2023-07-29T15:26:06;36.90;81.10
19037;DHT22;9651;49.138;8.900;2023-07-29T15:30:08;37.40;79.40
19037;DHT22;9651;49.138;8.900;2023-07-29T15:34:12;37.90;80.70
19037;DHT22;9651;49.138;8.900;2023-07-29T15:38:14;38.00;78.90
19037;DHT22;9651;49.138;8.900;2023-07-29T15:42:17;36.50;78.60
19037;DHT22;9651;49.138;8.900;2023-07-29T15:46:19;35.40;79.50
19037;DHT22;9651;49.138;8.900;2023-07-29T15:50:21;33.50;81.50
19037;DHT22;9651;49.138;8.900;2023-07-29T15:54:23;31.90;85.20
19037;DHT22;9651;49.138;8.900;2023-07-29T15:58:26;30.70;87.70
19037;DHT22;9651;49.138;8.900;2023-07-29T16:02:28;30.30;90.20
19037;DHT22;9651;49.138;8.900;2023-07-29T16:06:30;31.70;89.60
19037;DHT22;9651;49.138;8.900;2023-07-29T16:10:32;31.60;89.60
19037;DHT22;9651;49.138;8.900;2023-07-29T16:14:35;31.00;90.30
19037;DHT22;9651;49.138;8.900;2023-07-29T16:18:37;31.30;90.00
19037;DHT22;9651;49.138;8.900;2023-07-29T16:22:39;31.70;89.80
19037;DHT22;9651;49.138;8.900;2023-07-29T16:26:40;32.00;89.40
19037;DHT22;9651;49.138;8.900;2023-07-29T16:30:44;31.90;89.00
19037;DHT22;9651;49.138;8.900;2023-07-29T16:34:45;31.80;88.90
19037;DHT22;9651;49.138;8.900;2023-07-29T16:38:47;31.50;90.10
19037;DHT22;9651;49.138;8.900;2023-07-29T16:42:49;31.20;90.30
19037;DHT22;9651;49.138;8.900;2023-07-29T16:46:53;30.40;90.70
19037;DHT22;9651;49.138;8.900;2023-07-29T16:50:54;29.50;91.30
19037;DHT22;9651;49.138;8.900;2023-07-29T16:54:56;28.90;92.50
19037;DHT22;9651;49.138;8.900;2023-07-29T16:58:58;28.40;93.30
19037;DHT22;9651;49.138;8.900;2023-07-29T17:03:01;27.90;93.60
19037;DHT22;9651;49.138;8.900;2023-07-29T17:07:03;27.40;94.60
19037;DHT22;9651;49.138;8.900;2023-07-29T17:11:05;27.20;95.60
19037;DHT22;9651;49.138;8.900;2023-07-29T17:15:08;27.20;96.50
19037;DHT22;9651;49.138;8.900;2023-07-29T17:19:11;27.30;96.90
19037;DHT22;9651;49.138;8.900;2023-07-29T17:23:13;27.60;97.20
19037;DHT22;9651;49.138;8.900;2023-07-29T17:27:15;27.60;97.50
19037;DHT22;9651;49.138;8.900;2023-07-29T17:31:17;27.50;98.10
19037;DHT22;9651;49.138;8.900;2023-07-29T17:35:20;27.10;99.00
19037;DHT22;9651;49.138;8.900;2023-07-29T17:39:22;26.90;99.60
19037;DHT22;9651;49.138;8.900;2023-07-29T17:43:24;26.80;99.90
19037;DHT22;9651;49.138;8.900;2023-07-29T17:47:26;26.70;99.90
19037;DHT22;9651;49.138;8.900;2023-07-29T17:51:29;26.60;99.90
19037;DHT22;9651;49.138;8.900;2023-07-29T17:55:36;26.40;99.90
19037;DHT22;9651;49.138;8.900;2023-07-29T17:59:38;26.10;99.90
19037;DHT22;9651;49.138;8.900;2023-07-29T18:03:40;26.00;99.90
19037;DHT22;9651;49.138;8.900;2023-07-29T18:07:43;25.90;99.90
19037;DHT22;9651;49.138;8.900;2023-07-29T18:11:45;25.70;99.90
19037;DHT22;9651;49.138;8.900;2023-07-29T18:15:50;25.40;99.90
19037;DHT22;9651;49.138;8.900;2023-07-29T18:19:52;25.10;99.90
19037;DHT22;9651;49.138;8.900;2023-07-29T18:23:55;25.00;99.90
19037;DHT22;9651;49.138;8.900;2023-07-29T18:27:57;24.80;99.90
19037;DHT22;9651;49.138;8.900;2023-07-29T18:31:59;24.70;99.90
19037;DHT22;9651;49.138;8.900;2023-07-29T18:36:02;24.40;99.90
19037;DHT22;9651;49.138;8.900;2023-07-29T18:40:07;24.20;99.90
19037;DHT22;9651;49.138;8.900;2023-07-29T18:44:09;23.90;99.90
19037;DHT22;9651;49.138;8.900;2023-07-29T18:48:11;23.60;99.90
19037;DHT22;9651;49.138;8.900;2023-07-29T18:52:13;23.30;99.90
19037;DHT22;9651;49.138;8.900;2023-07-29T18:56:16;23.00;99.90
19037;DHT22;9651;49.138;8.900;2023-07-29T19:00:18;22.90;99.90
19037;DHT22;9651;49.138;8.900;2023-07-29T19:04:20;22.70;99.90
19037;DHT22;9651;49.138;8.900;2023-07-29T19:08:22;22.40;99.90
19037;DHT22;9651;49.138;8.900;2023-07-29T19:12:25;22.20;99.90
19037;DHT22;9651;49.138;8.900;2023-07-29T19:16:28;22.00;99.90
19037;DHT22;9651;49.138;8.900;2023-07-29T19:20:30;22.00;99.90
19037;DHT22;9651;49.138;8.900;2023-07-29T19:24:34;21.80;99.90
19037;DHT22;9651;49.138;8.900;2023-07-29T19:28:37;21.80;99.90
19037;DHT22;9651;49.138;8.900;2023-07-29T19:32:39;21.60;99.90
19037;DHT22;9651;49.138;8.900;2023-07-29T19:36:41;21.60;99.90
19037;DHT22;9651;49.138;8.900;2023-07-29T19:40:43;21.40;99.90
19037;DHT22;9651;49.138;8.900;2023-07-29T19:44:46;21.30;99.90
19037;DHT22;9651;49.138;8.900;2023-07-29T19:48:48;21.20;99.90
19037;DHT22;9651;49.138;8.900;2023-07-29T19:52:52;21.10;99.90
19037;DHT22;9651;49.138;8.900;2023-07-29T19:56:54;21.00;99.90
19037;DHT22;9651;49.138;8.900;2023-07-29T20:00:57;20.90;99.90
19037;DHT22;9651;49.138;8.900;2023-07-29T20:04:59;20.90;99.90
19037;DHT22;9651;49.138;8.900;2023-07-29T20:09:01;20.80;99.90
19037;DHT22;9651;49.138;8.900;2023-07-29T20:13:03;20.70;99.90
19037;DHT22;9651;49.138;8.900;2023-07-29T20:17:06;20.60;99.90
19037;DHT22;9651;49.138;8.900;2023-07-29T20:21:08;20.60;99.90
19037;DHT22;9651;49.138;8.900;2023-07-29T20:25:10;20.50;99.90
19037;DHT22;9651;49.138;8.900;2023-07-29T20:29:12;20.60;99.90
19037;DHT22;9651;49.138;8.900;2023-07-29T20:33:15;20.60;99.90
19037;DHT22;9651;49.138;8.900;2023-07-29T20:37:17;20.70;99.90
19037;DHT22;9651;49.138;8.900;2023-07-29T20:41:19;20.70;99.90
19037;DHT22;9651;49.138;8.900;2023-07-29T20:45:21;20.70;99.90
19037;DHT22;9651;49.138;8.900;2023-07-29T20:49:25;20.70;99.90
19037;DHT22;9651;49.138;8.900;2023-07-29T20:53:27;20.70;99.90
19037;DHT22;9651;49.138;8.900;2023-07-29T20:57:29;20.70;99.90
19037;DHT22;9651;49.138;8.900;2023-07-29T21:01:31;20.60;99.90
19037;DHT22;9651;49.138;8.900;2023-07-29T21:05:36;20.60;99.90
19037;DHT22;9651;49.138;8.900;2023-07-29T21:09:37;20.50;99.90
19037;DHT22;9651;49.138;8.900;2023-07-29T21:13:39;20.50;99.90
19037;DHT22;9651;49.138;8.900;2023-07-29T21:17:41;20.50;99.90
19037;DHT22;9651;49.138;8.900;2023-07-29T21:21:45;20.60;99.90
19037;DHT22;9651;49.138;8.900;2023-07-29T21:25:48;20.50;99.90
19037;DHT22;9651;49.138;8.900;2023-07-29T21:29:50;20.40;99.90
19037;DHT22;9651;49.138;8.900;2023-07-29T21:33:52;20.50;99.90
19037;DHT22;9651;49.138;8.900;2023-07-29T21:37:55;20.40;99.90
19037;DHT22;9651;49.138;8.900;2023-07-29T21:41:57;20.30;99.90
19037;DHT22;9651;49.138;8.900;2023-07-29T21:45:59;20.30;99.90
19037;DHT22;9651;49.138;8.900;2023-07-29T21:50:01;20.30;99.90
19037;DHT22;9651;49.138;8.900;2023-07-29T21:54:04;20.30;99.90
19037;DHT22;9651;49.138;8.900;2023-07-29T21:58:06;20.30;99.90
19037;DHT22;9651;49.138;8.900;2023-07-29T22:02:08;20.30;99.90
19037;DHT22;9651;49.138;8.900;2023-07-29T22:06:11;20.30;99.90
19037;DHT22;9651;49.138;8.900;2023-07-29T22:10:14;20.30;99.90
19037;DHT22;9651;49.138;8.900;2023-07-29T22:14:16;20.20;99.90
19037;DHT22;9651;49.138;8.900;2023-07-29T22:18:20;20.20;99.90
19037;DHT22;9651;49.138;8.900;2023-07-29T22:22:21;20.20;99.90
19037;DHT22;9651;49.138;8.900;2023-07-29T22:26:25;20.20;99.90
19037;DHT22;9651;49.138;8.900;2023-07-29T22:30:26;20.20;99.90
19037;DHT22;9651;49.138;8.900;2023-07-29T22:34:29;20.20;99.90
19037;DHT22;9651;49.138;8.900;2023-07-29T22:38:31;20.20;99.90
19037;DHT22;9651;49.138;8.900;2023-07-29T22:42:35;20.20;99.90
19037;DHT22;9651;49.138;8.900;2023-07-29T22:46:37;20.00;99.90
19037;DHT22;9651;49.138;8.900;2023-07-29T22:50:39;19.90;99.90
19037;DHT22;9651;49.138;8.900;2023-07-29T22:54:41;19.90;99.90
19037;DHT22;9651;49.138;8.900;2023-07-29T22:58:44;19.90;99.90
19037;DHT22;9651;49.138;8.900;2023-07-29T23:02:46;19.90;99.90
19037;DHT22;9651;49.138;8.900;2023-07-29T23:06:48;19.90;99.90
19037;DHT22;9651;49.138;8.900;2023-07-29T23:10:49;20.00;99.90
19037;DHT22;9651;49.138;8.900;2023-07-29T23:14:53;20.00;99.90
19037;DHT22;9651;49.138;8.900;2023-07-29T23:18:55;20.00;99.90
19037;DHT22;9651;49.138;8.900;2023-07-29T23:22:56;20.00;99.90
19037;DHT22;9651;49.138;8.900;2023-07-29T23:26:58;20.00;99.90
19037;DHT22;9651;49.138;8.900;2023-07-29T23:31:01;20.00;99.90
19037;DHT22;9651;49.138;8.900;2023-07-29T23:35:04;20.00;99.90
19037;DHT22;9651;49.138;8.900;2023-07-29T23:39:06;20.00;99.90
19037;DHT22;9651;49.138;8.900;2023-07-29T23:43:07;19.90;99.90
19037;DHT22;9651;49.138;8.900;2023-07-29T23:47:10;19.90;99.90
19037;DHT22;9651;49.138;8.900;2023-07-29T23:51:12;19.90;99.90
19037;DHT22;9651;49.138;8.900;2023-07-29T23:55:14;19.80;99.90
19037;DHT22;9651;49.138;8.900;2023-07-29T23:59:16;19.80;99.90
